Aviation Digital Data Service (ADDS)

Output produced by METARs form (2113 UTC 16 February 2019)
found at http://www.aviationweather.gov/metar/data/
 
METAR text: FKKR 162000Z 08005KT 1200 R09/1400 DU NSC 26/M03 Q1014 NOSIG
Conditions at: FKKR (GAROUA , CM) observed 2000 UTC 16 February 2019
Temperature: 26.0°C (79°F)
Dewpoint: -3.0°C (27°F) [RH = 15%]
Pressure (altimeter): 29.94 inches Hg (1014.0 mb)
Winds: from the E (80 degrees) at 6 MPH (5 knots; 2.6 m/s)
Visibility: 0.75 miles (1.21 km)
Ceiling: at least 12,000 feet AGL
Clouds: sky clear below 12,000 feet AGL
Weather: DU  (widespread dust)

METAR text: FKKR 161900Z VRB02KT 0800 DU NSC 27/00 Q1013 NOSIG
Conditions at: FKKR (GAROUA , CM) observed 1900 UTC 16 February 2019
Temperature: 27.0°C (81°F)
Dewpoint: 0.0°C (32°F) [RH = 17%]
Pressure (altimeter): 29.91 inches Hg (1013.0 mb)
Winds: variable direction winds at 2 MPH (2 knots; 1.0 m/s)
Visibility: 0.50 miles (0.80 km)
Ceiling: at least 12,000 feet AGL
Clouds: sky clear below 12,000 feet AGL
Weather: DU  (widespread dust)

METAR text: FKKR 161800Z 14003KT 0800 DU NSC 28/M02 Q1012 NOSIG
Conditions at: FKKR (GAROUA , CM) observed 1800 UTC 16 February 2019
Temperature: 28.0°C (82°F)
Dewpoint: -2.0°C (28°F) [RH = 14%]
Pressure (altimeter): 29.88 inches Hg (1012.0 mb)
Winds: from the SE (140 degrees) at 3 MPH (3 knots; 1.5 m/s)
Visibility: 0.50 miles (0.80 km)
Ceiling: at least 12,000 feet AGL
Clouds: sky clear below 12,000 feet AGL
Weather: DU  (widespread dust)

METAR text: FKKR 161700Z 14005KT 8000 DU NSC 31/M03 Q1012 NOSIG
Conditions at: FKKR (GAROUA , CM) observed 1700 UTC 16 February 2019
Temperature: 31.0°C (88°F)
Dewpoint: -3.0°C (27°F) [RH = 11%]
Pressure (altimeter): 29.88 inches Hg (1012.0 mb)
Winds: from the SE (140 degrees) at 6 MPH (5 knots; 2.6 m/s)
Visibility: 5 miles ( 8 km)
Ceiling: at least 12,000 feet AGL
Clouds: sky clear below 12,000 feet AGL
Weather: DU  (widespread dust)

METAR text: FKKR 161600Z 15008KT 0800 R09/1200N DU NSC 32/02 Q1012 NOSIG
Conditions at: FKKR (GAROUA , CM) observed 1600 UTC 16 February 2019
Temperature: 32.0°C (90°F)
Dewpoint: 2.0°C (36°F) [RH = 15%]
Pressure (altimeter): 29.88 inches Hg (1012.0 mb)
Winds: from the SSE (150 degrees) at 9 MPH (8 knots; 4.1 m/s)
Visibility: 0.50 miles (0.80 km)
Ceiling: at least 12,000 feet AGL
Clouds: sky clear below 12,000 feet AGL
Weather: DU  (widespread dust)

METAR text: FKKR 161500Z 11005KT 020V150 0800 R09/1200 NSC 32/M05 Q1012 NOSIG
Conditions at: FKKR (GAROUA , CM) observed 1500 UTC 16 February 2019
Temperature: 32.0°C (90°F)
Dewpoint: -5.0°C (23°F) [RH =  9%]
Pressure (altimeter): 29.88 inches Hg (1012.0 mb)
Winds: from the ESE (110 degrees) at 6 MPH (5 knots; 2.6 m/s)
Visibility: 0.50 miles (0.80 km)
Ceiling: at least 12,000 feet AGL
Clouds: sky clear below 12,000 feet AGL
Weather: no significant weather observed at this time

METAR text: FKKR 161400Z 10006KT 0800 DU NSC 32/M01 Q1013 NOSIG
Conditions at: FKKR (GAROUA , CM) observed 1400 UTC 16 February 2019
Temperature: 32.0°C (90°F)
Dewpoint: -1.0°C (30°F) [RH = 12%]
Pressure (altimeter): 29.91 inches Hg (1013.0 mb)
Winds: from the E (100 degrees) at 7 MPH (6 knots; 3.1 m/s)
Visibility: 0.50 miles (0.80 km)
Ceiling: at least 12,000 feet AGL
Clouds: sky clear below 12,000 feet AGL
Weather: DU  (widespread dust)

METAR text: FKKR 161300Z VRB04KT 0800 R09/1200N DU NSC 32/M03 Q1014 NOSIG
Conditions at: FKKR (GAROUA , CM) observed 1300 UTC 16 February 2019
Temperature: 32.0°C (90°F)
Dewpoint: -3.0°C (27°F) [RH = 10%]
Pressure (altimeter): 29.94 inches Hg (1014.0 mb)
Winds: variable direction winds at 5 MPH (4 knots; 2.1 m/s)
Visibility: 0.50 miles (0.80 km)
Ceiling: at least 12,000 feet AGL
Clouds: sky clear below 12,000 feet AGL
Weather: DU  (widespread dust)

METAR text: FKKR 161200Z VRB04KT 0800 R09/1100N DU NSC 31/M03 Q1015 NOSIG
Conditions at: FKKR (GAROUA , CM) observed 1200 UTC 16 February 2019
Temperature: 31.0°C (88°F)
Dewpoint: -3.0°C (27°F) [RH = 11%]
Pressure (altimeter): 29.97 inches Hg (1015.0 mb)
Winds: variable direction winds at 5 MPH (4 knots; 2.1 m/s)
Visibility: 0.50 miles (0.80 km)
Ceiling: at least 12,000 feet AGL
Clouds: sky clear below 12,000 feet AGL
Weather: DU  (widespread dust)

METAR text: FKKR 161100Z VRB03KT 0800 R09/1100D DU NSC 29/M03 Q1016 NOSIG
Conditions at: FKKR (GAROUA , CM) observed 1100 UTC 16 February 2019
Temperature: 29.0°C (84°F)
Dewpoint: -3.0°C (27°F) [RH = 12%]
Pressure (altimeter): 30.00 inches Hg (1016.0 mb)
Winds: variable direction winds at 3 MPH (3 knots; 1.5 m/s)
Visibility: 0.50 miles (0.80 km)
Ceiling: at least 12,000 feet AGL
Clouds: sky clear below 12,000 feet AGL
Weather: DU  (widespread dust)

METAR text: FKKR 161000Z 10004KT 040V170 0800 R09/1200N DU NSC 28/M03 Q1018 NOSIG
Conditions at: FKKR (GAROUA , CM) observed 1000 UTC 16 February 2019
Temperature: 28.0°C (82°F)
Dewpoint: -3.0°C (27°F) [RH = 13%]
Pressure (altimeter): 30.06 inches Hg (1018.0 mb)
Winds: from the E (100 degrees) at 5 MPH (4 knots; 2.1 m/s)
Visibility: 0.50 miles (0.80 km)
Ceiling: at least 12,000 feet AGL
Clouds: sky clear below 12,000 feet AGL
Weather: DU  (widespread dust)

METAR text: FKKR 160900Z 11003KT 050V150 0800 R09/1200N DU NSC 27/M03 Q1018 NOSIG
Conditions at: FKKR (GAROUA , CM) observed 0900 UTC 16 February 2019
Temperature: 27.0°C (81°F)
Dewpoint: -3.0°C (27°F) [RH = 14%]
Pressure (altimeter): 30.06 inches Hg (1018.0 mb)
Winds: from the ESE (110 degrees) at 3 MPH (3 knots; 1.5 m/s)
Visibility: 0.50 miles (0.80 km)
Ceiling: at least 12,000 feet AGL
Clouds: sky clear below 12,000 feet AGL
Weather: DU  (widespread dust)

METAR text: FKKR 160800Z 09005KT 0800 R09/1100D DU NSC 25/M03 Q1018 NOSIG
Conditions at: FKKR (GAROUA , CM) observed 0800 UTC 16 February 2019
Temperature: 25.0°C (77°F)
Dewpoint: -3.0°C (27°F) [RH = 15%]
Pressure (altimeter): 30.06 inches Hg (1018.0 mb)
Winds: from the E (90 degrees) at 6 MPH (5 knots; 2.6 m/s)
Visibility: 0.50 miles (0.80 km)
Ceiling: at least 12,000 feet AGL
Clouds: sky clear below 12,000 feet AGL
Weather: DU  (widespread dust)

METAR text: FKKR 160400Z 09005KT 5000 DU NSC 20/M01 Q1015 NOSIG
Conditions at: FKKR (GAROUA , CM) observed 0400 UTC 16 February 2019
Temperature: 20.0°C (68°F)
Dewpoint: -1.0°C (30°F) [RH = 24%]
Pressure (altimeter): 29.97 inches Hg (1015.0 mb)
Winds: from the E (90 degrees) at 6 MPH (5 knots; 2.6 m/s)
Visibility: 3 miles ( 5 km)
Ceiling: at least 12,000 feet AGL
Clouds: sky clear below 12,000 feet AGL
Weather: DU  (widespread dust)

METAR text: FKKR 160300Z 08004KT 5000 DU NSC 20/M01 Q1015 NOSIG
Conditions at: FKKR (GAROUA , CM) observed 0300 UTC 16 February 2019
Temperature: 20.0°C (68°F)
Dewpoint: -1.0°C (30°F) [RH = 24%]
Pressure (altimeter): 29.97 inches Hg (1015.0 mb)
Winds: from the E (80 degrees) at 5 MPH (4 knots; 2.1 m/s)
Visibility: 3 miles ( 5 km)
Ceiling: at least 12,000 feet AGL
Clouds: sky clear below 12,000 feet AGL
Weather: DU  (widespread dust)

METAR text: FKKR 160200Z 12002KT 4500 DU NSC 20/01 Q1015 NOSIG
Conditions at: FKKR (GAROUA , CM) observed 0200 UTC 16 February 2019
Temperature: 20.0°C (68°F)
Dewpoint: 1.0°C (34°F) [RH = 28%]
Pressure (altimeter): 29.97 inches Hg (1015.0 mb)
Winds: from the ESE (120 degrees) at 2 MPH (2 knots; 1.0 m/s)
Visibility: 2.80 miles (4.51 km)
Ceiling: at least 12,000 feet AGL
Clouds: sky clear below 12,000 feet AGL
Weather: DU  (widespread dust)

METAR text: FKKR 160100Z 00000KT 2500 DU NSC 21/M01 Q1015 TEMPO 4000 DU
Conditions at: FKKR (GAROUA , CM) observed 0100 UTC 16 February 2019
Temperature: 21.0°C (70°F)
Dewpoint: -1.0°C (30°F) [RH = 23%]
Pressure (altimeter): 29.97 inches Hg (1015.0 mb)
Winds: calm
Visibility: 1.55 miles (2.49 km)
Ceiling: at least 12,000 feet AGL
Clouds: sky clear below 12,000 feet AGL
Weather: DU  (widespread dust)

METAR text: FKKR 160000Z 35003KT 2000 DU NSC 22/02 Q1015 NOSIG
Conditions at: FKKR (GAROUA , CM) observed 0000 UTC 16 February 2019
Temperature: 22.0°C (72°F)
Dewpoint: 2.0°C (36°F) [RH = 27%]
Pressure (altimeter): 29.97 inches Hg (1015.0 mb)
Winds: from the N (350 degrees) at 3 MPH (3 knots; 1.5 m/s)
Visibility: 1.24 miles (2.00 km)
Ceiling: at least 12,000 feet AGL
Clouds: sky clear below 12,000 feet AGL
Weather: DU  (widespread dust)

METAR text: FKKR 152300Z 08003KT 2000 DU NSC 24/M02 Q1015 NOSIG
Conditions at: FKKR (GAROUA , CM) observed 2300 UTC 15 February 2019
Temperature: 24.0°C (75°F)
Dewpoint: -2.0°C (28°F) [RH = 18%]
Pressure (altimeter): 29.97 inches Hg (1015.0 mb)
Winds: from the E (80 degrees) at 3 MPH (3 knots; 1.5 m/s)
Visibility: 1.24 miles (2.00 km)
Ceiling: at least 12,000 feet AGL
Clouds: sky clear below 12,000 feet AGL
Weather: DU  (widespread dust)

METAR text: FKKR 152200Z 08005KT 2000 DU NSC 24/M03 Q1015 NOSIG
Conditions at: FKKR (GAROUA , CM) observed 2200 UTC 15 February 2019
Temperature: 24.0°C (75°F)
Dewpoint: -3.0°C (27°F) [RH = 16%]
Pressure (altimeter): 29.97 inches Hg (1015.0 mb)
Winds: from the E (80 degrees) at 6 MPH (5 knots; 2.6 m/s)
Visibility: 1.24 miles (2.00 km)
Ceiling: at least 12,000 feet AGL
Clouds: sky clear below 12,000 feet AGL
Weather: DU  (widespread dust)

METAR text: FKKR 152100Z 07006KT 2000 DU NSC 25/M02 Q1015 NOSIG
Conditions at: FKKR (GAROUA , CM) observed 2100 UTC 15 February 2019
Temperature: 25.0°C (77°F)
Dewpoint: -2.0°C (28°F) [RH = 17%]
Pressure (altimeter): 29.97 inches Hg (1015.0 mb)
Winds: from the ENE (70 degrees) at 7 MPH (6 knots; 3.1 m/s)
Visibility: 1.24 miles (2.00 km)
Ceiling: at least 12,000 feet AGL
Clouds: sky clear below 12,000 feet AGL
Weather: DU  (widespread dust)

METAR text: FKKR 152000Z 08006KT 2000 DU NSC 26/M02 Q1015 NOSIG
Conditions at: FKKR (GAROUA , CM) observed 2000 UTC 15 February 2019
Temperature: 26.0°C (79°F)
Dewpoint: -2.0°C (28°F) [RH = 16%]
Pressure (altimeter): 29.97 inches Hg (1015.0 mb)
Winds: from the E (80 degrees) at 7 MPH (6 knots; 3.1 m/s)
Visibility: 1.24 miles (2.00 km)
Ceiling: at least 12,000 feet AGL
Clouds: sky clear below 12,000 feet AGL
Weather: DU  (widespread dust)

METAR text: FKKR 151900Z 09007KT 2000 DU NSC 28/M03 Q1014 NOSIG
Conditions at: FKKR (GAROUA , CM) observed 1900 UTC 15 February 2019
Temperature: 28.0°C (82°F)
Dewpoint: -3.0°C (27°F) [RH = 13%]
Pressure (altimeter): 29.94 inches Hg (1014.0 mb)
Winds: from the E (90 degrees) at 8 MPH (7 knots; 3.6 m/s)
Visibility: 1.24 miles (2.00 km)
Ceiling: at least 12,000 feet AGL
Clouds: sky clear below 12,000 feet AGL
Weather: DU  (widespread dust)

METAR text: FKKR 151800Z 09006KT 2000 DU NSC 29/M03 Q1013 NOSIG
Conditions at: FKKR (GAROUA , CM) observed 1800 UTC 15 February 2019
Temperature: 29.0°C (84°F)
Dewpoint: -3.0°C (27°F) [RH = 12%]
Pressure (altimeter): 29.91 inches Hg (1013.0 mb)
Winds: from the E (90 degrees) at 7 MPH (6 knots; 3.1 m/s)
Visibility: 1.24 miles (2.00 km)
Ceiling: at least 12,000 feet AGL
Clouds: sky clear below 12,000 feet AGL
Weather: DU  (widespread dust)

METAR text: FKKR 151700Z 14003KT 2000 DU NSC 31/M03 Q1013 NOSIG
Conditions at: FKKR (GAROUA , CM) observed 1700 UTC 15 February 2019
Temperature: 31.0°C (88°F)
Dewpoint: -3.0°C (27°F) [RH = 11%]
Pressure (altimeter): 29.91 inches Hg (1013.0 mb)
Winds: from the SE (140 degrees) at 3 MPH (3 knots; 1.5 m/s)
Visibility: 1.24 miles (2.00 km)
Ceiling: at least 12,000 feet AGL
Clouds: sky clear below 12,000 feet AGL
Weather: DU  (widespread dust)

METAR text: FKKR 151600Z VRB03KT 2000 DU NSC 33/M04 Q1012 NOSIG
Conditions at: FKKR (GAROUA , CM) observed 1600 UTC 15 February 2019
Temperature: 33.0°C (91°F)
Dewpoint: -4.0°C (25°F) [RH =  9%]
Pressure (altimeter): 29.88 inches Hg (1012.0 mb)
Winds: variable direction winds at 3 MPH (3 knots; 1.5 m/s)
Visibility: 1.24 miles (2.00 km)
Ceiling: at least 12,000 feet AGL
Clouds: sky clear below 12,000 feet AGL
Weather: DU  (widespread dust)

METAR text: FKKR 151500Z 20004KT 150V250 2000 DU NSC 33/M03 Q1013 NOSIG
Conditions at: FKKR (GAROUA , CM) observed 1500 UTC 15 February 2019
Temperature: 33.0°C (91°F)
Dewpoint: -3.0°C (27°F) [RH = 10%]
Pressure (altimeter): 29.91 inches Hg (1013.0 mb)
Winds: from the SSW (200 degrees) at 5 MPH (4 knots; 2.1 m/s)
Visibility: 1.24 miles (2.00 km)
Ceiling: at least 12,000 feet AGL
Clouds: sky clear below 12,000 feet AGL
Weather: DU  (widespread dust)

METAR text: FKKR 151400Z VRB03KT 2000 DU NSC 34/M02 Q1013 NOSIG
Conditions at: FKKR (GAROUA , CM) observed 1400 UTC 15 February 2019
Temperature: 34.0°C (93°F)
Dewpoint: -2.0°C (28°F) [RH = 10%]
Pressure (altimeter): 29.91 inches Hg (1013.0 mb)
Winds: variable direction winds at 3 MPH (3 knots; 1.5 m/s)
Visibility: 1.24 miles (2.00 km)
Ceiling: at least 12,000 feet AGL
Clouds: sky clear below 12,000 feet AGL
Weather: DU  (widespread dust)

METAR text: FKKR 151300Z VRB04KT 1700 DU NSC 33/M03 Q1014 NOSIG
Conditions at: FKKR (GAROUA , CM) observed 1300 UTC 15 February 2019
Temperature: 33.0°C (91°F)
Dewpoint: -3.0°C (27°F) [RH = 10%]
Pressure (altimeter): 29.94 inches Hg (1014.0 mb)
Winds: variable direction winds at 5 MPH (4 knots; 2.1 m/s)
Visibility: 1.06 miles (1.71 km)
Ceiling: at least 12,000 feet AGL
Clouds: sky clear below 12,000 feet AGL
Weather: DU  (widespread dust)

METAR text: FKKR 151200Z 13006KT 040V180 1100 R09/1500N DU NSC 32/M01 Q1016 NOSIG
Conditions at: FKKR (GAROUA , CM) observed 1200 UTC 15 February 2019
Temperature: 32.0°C (90°F)
Dewpoint: -1.0°C (30°F) [RH = 12%]
Pressure (altimeter): 30.00 inches Hg (1016.0 mb)
Winds: from the SE (130 degrees) at 7 MPH (6 knots; 3.1 m/s)
Visibility: 0.68 miles (1.09 km)
Ceiling: at least 12,000 feet AGL
Clouds: sky clear below 12,000 feet AGL
Weather: DU  (widespread dust)

METAR text: FKKR 151100Z 12004KT 1000 R09/1100 DU NSC 31/17 Q1017 NOSIG
Conditions at: FKKR (GAROUA , CM) observed 1100 UTC 15 February 2019
Temperature: 31.0°C (88°F)
Dewpoint: 17.0°C (63°F) [RH = 43%]
Pressure (altimeter): 30.03 inches Hg (1017.0 mb)
Winds: from the ESE (120 degrees) at 5 MPH (4 knots; 2.1 m/s)
Visibility: 0.62 miles (1.00 km)
Ceiling: at least 12,000 feet AGL
Clouds: sky clear below 12,000 feet AGL
Weather: DU  (widespread dust)

METAR text: FKKR 151000Z 10005KT 030V190 1300 R09/1300N DU NSC 29/00 Q1018 NOSIG
Conditions at: FKKR (GAROUA , CM) observed 1000 UTC 15 February 2019
Temperature: 29.0°C (84°F)
Dewpoint: 0.0°C (32°F) [RH = 15%]
Pressure (altimeter): 30.06 inches Hg (1018.0 mb)
Winds: from the E (100 degrees) at 6 MPH (5 knots; 2.6 m/s)
Visibility: 0.81 miles (1.30 km)
Ceiling: at least 12,000 feet AGL
Clouds: sky clear below 12,000 feet AGL
Weather: DU  (widespread dust)